sensor_id;sensor_type;location;lat;lon;timestamp;P1;durP1;ratioP1;P2;durP2;ratioP2
23058;SDS011;30585;51.502;7.218;2022-07-30T00:00:25;5.85;;;4.50;;
23058;SDS011;30585;51.502;7.218;2022-07-30T00:02:53;5.82;;;4.03;;
23058;SDS011;30585;51.502;7.218;2022-07-30T00:05:21;7.20;;;4.60;;
23058;SDS011;30585;51.502;7.218;2022-07-30T00:07:49;6.70;;;4.32;;
23058;SDS011;30585;51.502;7.218;2022-07-30T00:10:17;6.43;;;3.90;;
23058;SDS011;30585;51.502;7.218;2022-07-30T00:12:46;6.87;;;4.47;;
23058;SDS011;30585;51.502;7.218;2022-07-30T00:15:14;5.60;;;4.23;;
23058;SDS011;30585;51.502;7.218;2022-07-30T00:17:43;5.43;;;4.30;;
23058;SDS011;30585;51.502;7.218;2022-07-30T00:20:14;5.13;;;4.20;;
23058;SDS011;30585;51.502;7.218;2022-07-30T00:22:43;7.00;;;4.57;;
23058;SDS011;30585;51.502;7.218;2022-07-30T00:25:11;6.47;;;4.50;;
23058;SDS011;30585;51.502;7.218;2022-07-30T00:27:40;5.32;;;4.60;;
23058;SDS011;30585;51.502;7.218;2022-07-30T00:30:08;8.20;;;4.57;;
23058;SDS011;30585;51.502;7.218;2022-07-30T00:32:36;8.30;;;5.80;;
23058;SDS011;30585;51.502;7.218;2022-07-30T00:35:06;4.93;;;4.07;;
23058;SDS011;30585;51.502;7.218;2022-07-30T00:37:35;5.97;;;4.43;;
23058;SDS011;30585;51.502;7.218;2022-07-30T00:40:03;6.17;;;4.43;;
23058;SDS011;30585;51.502;7.218;2022-07-30T00:42:35;5.60;;;4.77;;
23058;SDS011;30585;51.502;7.218;2022-07-30T00:45:04;8.87;;;4.90;;
23058;SDS011;30585;51.502;7.218;2022-07-30T00:47:34;7.18;;;5.38;;
23058;SDS011;30585;51.502;7.218;2022-07-30T00:50:02;7.60;;;4.80;;
23058;SDS011;30585;51.502;7.218;2022-07-30T00:52:34;7.67;;;4.90;;
23058;SDS011;30585;51.502;7.218;2022-07-30T00:55:03;5.50;;;4.47;;
23058;SDS011;30585;51.502;7.218;2022-07-30T00:57:32;8.33;;;5.07;;
23058;SDS011;30585;51.502;7.218;2022-07-30T01:00:00;6.97;;;5.07;;
23058;SDS011;30585;51.502;7.218;2022-07-30T01:02:29;7.30;;;5.27;;
23058;SDS011;30585;51.502;7.218;2022-07-30T01:04:57;8.30;;;4.50;;
23058;SDS011;30585;51.502;7.218;2022-07-30T01:07:25;6.03;;;4.57;;
23058;SDS011;30585;51.502;7.218;2022-07-30T01:09:54;7.07;;;4.90;;
23058;SDS011;30585;51.502;7.218;2022-07-30T01:12:23;7.90;;;4.87;;
23058;SDS011;30585;51.502;7.218;2022-07-30T01:14:54;6.60;;;5.03;;
23058;SDS011;30585;51.502;7.218;2022-07-30T01:17:23;8.63;;;4.90;;
23058;SDS011;30585;51.502;7.218;2022-07-30T01:19:51;5.33;;;4.37;;
23058;SDS011;30585;51.502;7.218;2022-07-30T01:22:27;6.20;;;4.30;;
23058;SDS011;30585;51.502;7.218;2022-07-30T01:25:04;5.97;;;4.57;;
23058;SDS011;30585;51.502;7.218;2022-07-30T01:27:37;6.77;;;5.10;;
23058;SDS011;30585;51.502;7.218;2022-07-30T01:30:09;5.53;;;4.40;;
23058;SDS011;30585;51.502;7.218;2022-07-30T01:32:40;7.00;;;4.67;;
23058;SDS011;30585;51.502;7.218;2022-07-30T01:35:10;5.97;;;4.83;;
23058;SDS011;30585;51.502;7.218;2022-07-30T01:37:39;8.10;;;5.27;;
23058;SDS011;30585;51.502;7.218;2022-07-30T01:40:09;7.33;;;4.97;;
23058;SDS011;30585;51.502;7.218;2022-07-30T01:42:41;8.10;;;5.30;;
23058;SDS011;30585;51.502;7.218;2022-07-30T01:45:11;7.83;;;5.07;;
23058;SDS011;30585;51.502;7.218;2022-07-30T01:47:40;5.20;;;4.70;;
23058;SDS011;30585;51.502;7.218;2022-07-30T01:50:10;8.87;;;5.23;;
23058;SDS011;30585;51.502;7.218;2022-07-30T01:52:40;7.90;;;5.07;;
23058;SDS011;30585;51.502;7.218;2022-07-30T01:55:11;7.77;;;4.80;;
23058;SDS011;30585;51.502;7.218;2022-07-30T01:57:45;6.43;;;4.90;;
23058;SDS011;30585;51.502;7.218;2022-07-30T02:00:14;6.40;;;5.07;;
23058;SDS011;30585;51.502;7.218;2022-07-30T02:02:43;6.80;;;5.03;;
23058;SDS011;30585;51.502;7.218;2022-07-30T02:05:12;5.60;;;4.63;;
23058;SDS011;30585;51.502;7.218;2022-07-30T02:07:42;6.90;;;4.60;;
23058;SDS011;30585;51.502;7.218;2022-07-30T02:10:16;6.97;;;4.83;;
23058;SDS011;30585;51.502;7.218;2022-07-30T02:12:53;7.70;;;4.83;;
23058;SDS011;30585;51.502;7.218;2022-07-30T02:15:24;7.27;;;4.67;;
23058;SDS011;30585;51.502;7.218;2022-07-30T02:17:56;6.90;;;5.83;;
23058;SDS011;30585;51.502;7.218;2022-07-30T02:20:28;6.63;;;5.50;;
23058;SDS011;30585;51.502;7.218;2022-07-30T02:23:01;7.20;;;5.30;;
23058;SDS011;30585;51.502;7.218;2022-07-30T02:25:33;7.43;;;5.23;;
23058;SDS011;30585;51.502;7.218;2022-07-30T02:28:07;7.23;;;5.10;;
23058;SDS011;30585;51.502;7.218;2022-07-30T02:30:39;7.60;;;5.53;;
23058;SDS011;30585;51.502;7.218;2022-07-30T02:33:12;7.50;;;5.43;;
23058;SDS011;30585;51.502;7.218;2022-07-30T02:35:43;5.80;;;5.10;;
23058;SDS011;30585;51.502;7.218;2022-07-30T02:38:12;8.23;;;5.87;;
23058;SDS011;30585;51.502;7.218;2022-07-30T02:40:43;8.67;;;5.90;;
23058;SDS011;30585;51.502;7.218;2022-07-30T02:43:14;8.07;;;5.40;;
23058;SDS011;30585;51.502;7.218;2022-07-30T02:45:42;7.13;;;5.27;;
23058;SDS011;30585;51.502;7.218;2022-07-30T02:48:13;8.43;;;5.53;;
23058;SDS011;30585;51.502;7.218;2022-07-30T02:51:00;6.93;;;5.23;;
23058;SDS011;30585;51.502;7.218;2022-07-30T02:53:30;8.07;;;6.47;;
23058;SDS011;30585;51.502;7.218;2022-07-30T02:56:00;7.57;;;5.63;;
23058;SDS011;30585;51.502;7.218;2022-07-30T02:58:31;7.53;;;5.33;;
23058;SDS011;30585;51.502;7.218;2022-07-30T03:01:03;7.57;;;5.30;;
23058;SDS011;30585;51.502;7.218;2022-07-30T03:03:32;7.63;;;5.80;;
23058;SDS011;30585;51.502;7.218;2022-07-30T03:06:02;8.80;;;5.83;;
23058;SDS011;30585;51.502;7.218;2022-07-30T03:08:33;6.83;;;5.97;;
23058;SDS011;30585;51.502;7.218;2022-07-30T03:11:02;6.87;;;5.87;;
23058;SDS011;30585;51.502;7.218;2022-07-30T03:13:33;6.10;;;5.30;;
23058;SDS011;30585;51.502;7.218;2022-07-30T03:16:01;7.90;;;5.97;;
23058;SDS011;30585;51.502;7.218;2022-07-30T03:18:32;6.43;;;5.33;;
23058;SDS011;30585;51.502;7.218;2022-07-30T03:21:02;10.37;;;6.23;;
23058;SDS011;30585;51.502;7.218;2022-07-30T03:23:33;9.97;;;6.17;;
23058;SDS011;30585;51.502;7.218;2022-07-30T03:26:04;8.13;;;6.23;;
23058;SDS011;30585;51.502;7.218;2022-07-30T03:28:36;11.90;;;6.60;;
23058;SDS011;30585;51.502;7.218;2022-07-30T03:31:06;8.73;;;6.53;;
23058;SDS011;30585;51.502;7.218;2022-07-30T03:33:37;8.57;;;6.43;;
23058;SDS011;30585;51.502;7.218;2022-07-30T03:36:07;7.33;;;5.50;;
23058;SDS011;30585;51.502;7.218;2022-07-30T03:38:36;6.97;;;6.00;;
23058;SDS011;30585;51.502;7.218;2022-07-30T03:41:05;8.50;;;6.87;;
23058;SDS011;30585;51.502;7.218;2022-07-30T03:43:36;7.67;;;6.40;;
23058;SDS011;30585;51.502;7.218;2022-07-30T03:46:05;9.33;;;7.33;;
23058;SDS011;30585;51.502;7.218;2022-07-30T03:48:36;9.10;;;6.97;;
23058;SDS011;30585;51.502;7.218;2022-07-30T03:51:06;9.10;;;7.40;;
23058;SDS011;30585;51.502;7.218;2022-07-30T03:53:35;11.87;;;7.73;;
23058;SDS011;30585;51.502;7.218;2022-07-30T03:56:04;7.97;;;6.90;;
23058;SDS011;30585;51.502;7.218;2022-07-30T03:58:33;11.60;;;7.23;;
23058;SDS011;30585;51.502;7.218;2022-07-30T04:01:02;10.33;;;7.20;;
23058;SDS011;30585;51.502;7.218;2022-07-30T04:03:31;11.47;;;8.33;;
23058;SDS011;30585;51.502;7.218;2022-07-30T04:05:59;10.57;;;8.53;;
23058;SDS011;30585;51.502;7.218;2022-07-30T04:08:27;12.00;;;7.87;;
23058;SDS011;30585;51.502;7.218;2022-07-30T04:10:55;9.33;;;8.07;;
23058;SDS011;30585;51.502;7.218;2022-07-30T04:13:24;11.23;;;7.73;;
23058;SDS011;30585;51.502;7.218;2022-07-30T04:15:53;10.50;;;8.60;;
23058;SDS011;30585;51.502;7.218;2022-07-30T04:18:46;9.87;;;7.90;;
23058;SDS011;30585;51.502;7.218;2022-07-30T04:21:17;12.07;;;8.77;;
23058;SDS011;30585;51.502;7.218;2022-07-30T04:23:49;12.60;;;9.40;;
23058;SDS011;30585;51.502;7.218;2022-07-30T04:26:30;11.67;;;9.70;;
23058;SDS011;30585;51.502;7.218;2022-07-30T04:28:59;14.27;;;9.40;;
23058;SDS011;30585;51.502;7.218;2022-07-30T04:31:28;12.73;;;9.70;;
23058;SDS011;30585;51.502;7.218;2022-07-30T04:34:07;16.77;;;10.03;;
23058;SDS011;30585;51.502;7.218;2022-07-30T04:36:35;12.33;;;9.07;;
23058;SDS011;30585;51.502;7.218;2022-07-30T04:39:03;14.10;;;9.67;;
23058;SDS011;30585;51.502;7.218;2022-07-30T04:41:31;10.87;;;8.90;;
23058;SDS011;30585;51.502;7.218;2022-07-30T04:44:15;12.37;;;9.60;;
23058;SDS011;30585;51.502;7.218;2022-07-30T04:49:23;14.57;;;10.57;;
23058;SDS011;30585;51.502;7.218;2022-07-30T04:51:52;14.73;;;11.43;;
23058;SDS011;30585;51.502;7.218;2022-07-30T04:54:21;14.63;;;11.03;;
23058;SDS011;30585;51.502;7.218;2022-07-30T04:56:52;22.03;;;13.40;;
23058;SDS011;30585;51.502;7.218;2022-07-30T04:59:22;18.07;;;12.90;;
23058;SDS011;30585;51.502;7.218;2022-07-30T05:01:51;18.87;;;13.50;;
23058;SDS011;30585;51.502;7.218;2022-07-30T05:04:24;17.00;;;14.00;;
23058;SDS011;30585;51.502;7.218;2022-07-30T05:06:54;21.23;;;14.97;;
23058;SDS011;30585;51.502;7.218;2022-07-30T05:09:24;21.77;;;15.87;;
23058;SDS011;30585;51.502;7.218;2022-07-30T05:11:53;20.60;;;15.20;;
23058;SDS011;30585;51.502;7.218;2022-07-30T05:14:22;21.07;;;15.70;;
23058;SDS011;30585;51.502;7.218;2022-07-30T05:16:51;23.83;;;16.30;;
23058;SDS011;30585;51.502;7.218;2022-07-30T05:19:20;29.60;;;16.77;;
23058;SDS011;30585;51.502;7.218;2022-07-30T05:21:49;33.97;;;19.53;;
23058;SDS011;30585;51.502;7.218;2022-07-30T05:24:17;29.90;;;19.03;;
23058;SDS011;30585;51.502;7.218;2022-07-30T05:26:45;38.20;;;18.20;;
23058;SDS011;30585;51.502;7.218;2022-07-30T05:29:14;36.87;;;18.87;;
23058;SDS011;30585;51.502;7.218;2022-07-30T05:31:45;30.90;;;17.73;;
23058;SDS011;30585;51.502;7.218;2022-07-30T05:34:13;36.57;;;18.90;;
23058;SDS011;30585;51.502;7.218;2022-07-30T05:36:41;43.80;;;20.30;;
23058;SDS011;30585;51.502;7.218;2022-07-30T05:39:11;37.90;;;21.00;;
23058;SDS011;30585;51.502;7.218;2022-07-30T05:41:39;39.42;;;21.25;;
23058;SDS011;30585;51.502;7.218;2022-07-30T05:44:07;46.40;;;22.58;;
23058;SDS011;30585;51.502;7.218;2022-07-30T05:46:35;50.30;;;26.53;;
23058;SDS011;30585;51.502;7.218;2022-07-30T05:49:03;48.93;;;23.30;;
23058;SDS011;30585;51.502;7.218;2022-07-30T05:51:31;46.85;;;22.35;;
23058;SDS011;30585;51.502;7.218;2022-07-30T05:53:59;39.65;;;21.73;;
23058;SDS011;30585;51.502;7.218;2022-07-30T05:56:29;41.70;;;21.80;;
23058;SDS011;30585;51.502;7.218;2022-07-30T05:58:57;40.58;;;20.75;;
23058;SDS011;30585;51.502;7.218;2022-07-30T06:01:25;44.60;;;23.20;;
23058;SDS011;30585;51.502;7.218;2022-07-30T06:03:53;41.88;;;21.65;;
23058;SDS011;30585;51.502;7.218;2022-07-30T06:06:20;48.43;;;25.27;;
23058;SDS011;30585;51.502;7.218;2022-07-30T06:08:49;46.22;;;25.58;;
23058;SDS011;30585;51.502;7.218;2022-07-30T06:11:17;51.83;;;27.20;;
23058;SDS011;30585;51.502;7.218;2022-07-30T06:13:47;56.28;;;28.08;;
23058;SDS011;30585;51.502;7.218;2022-07-30T06:16:15;53.65;;;26.63;;
23058;SDS011;30585;51.502;7.218;2022-07-30T06:18:43;50.08;;;27.05;;
23058;SDS011;30585;51.502;7.218;2022-07-30T06:21:11;55.60;;;28.98;;
23058;SDS011;30585;51.502;7.218;2022-07-30T06:23:38;56.22;;;27.65;;
23058;SDS011;30585;51.502;7.218;2022-07-30T06:26:07;56.17;;;27.85;;
23058;SDS011;30585;51.502;7.218;2022-07-30T06:28:34;54.72;;;29.33;;
23058;SDS011;30585;51.502;7.218;2022-07-30T06:31:06;54.67;;;28.30;;
23058;SDS011;30585;51.502;7.218;2022-07-30T06:33:34;47.03;;;27.27;;
23058;SDS011;30585;51.502;7.218;2022-07-30T06:36:02;50.78;;;28.48;;
23058;SDS011;30585;51.502;7.218;2022-07-30T06:38:30;50.60;;;28.30;;
23058;SDS011;30585;51.502;7.218;2022-07-30T06:40:58;49.88;;;28.13;;
23058;SDS011;30585;51.502;7.218;2022-07-30T06:43:29;55.00;;;28.88;;
23058;SDS011;30585;51.502;7.218;2022-07-30T06:45:57;51.83;;;30.15;;
23058;SDS011;30585;51.502;7.218;2022-07-30T06:48:27;61.72;;;37.83;;
23058;SDS011;30585;51.502;7.218;2022-07-30T06:50:57;55.92;;;33.83;;
23058;SDS011;30585;51.502;7.218;2022-07-30T06:53:28;54.53;;;31.13;;
23058;SDS011;30585;51.502;7.218;2022-07-30T06:56:08;57.35;;;30.27;;
23058;SDS011;30585;51.502;7.218;2022-07-30T06:58:36;54.35;;;31.23;;
23058;SDS011;30585;51.502;7.218;2022-07-30T07:01:04;50.75;;;29.77;;
23058;SDS011;30585;51.502;7.218;2022-07-30T07:03:38;56.28;;;32.30;;
23058;SDS011;30585;51.502;7.218;2022-07-30T07:06:06;51.30;;;30.63;;
23058;SDS011;30585;51.502;7.218;2022-07-30T07:08:35;55.45;;;30.50;;
23058;SDS011;30585;51.502;7.218;2022-07-30T07:11:03;48.50;;;28.42;;
23058;SDS011;30585;51.502;7.218;2022-07-30T07:13:31;48.33;;;27.92;;
23058;SDS011;30585;51.502;7.218;2022-07-30T07:16:03;48.58;;;28.02;;
23058;SDS011;30585;51.502;7.218;2022-07-30T07:18:31;47.83;;;29.35;;
23058;SDS011;30585;51.502;7.218;2022-07-30T07:21:00;45.60;;;28.02;;
23058;SDS011;30585;51.502;7.218;2022-07-30T07:23:28;51.63;;;28.35;;
23058;SDS011;30585;51.502;7.218;2022-07-30T07:26:07;39.92;;;27.63;;
23058;SDS011;30585;51.502;7.218;2022-07-30T07:28:35;38.25;;;26.13;;
23058;SDS011;30585;51.502;7.218;2022-07-30T07:31:03;38.50;;;25.90;;
23058;SDS011;30585;51.502;7.218;2022-07-30T07:33:31;36.53;;;23.77;;
23058;SDS011;30585;51.502;7.218;2022-07-30T07:36:00;36.35;;;23.38;;
23058;SDS011;30585;51.502;7.218;2022-07-30T07:38:28;36.70;;;22.42;;
23058;SDS011;30585;51.502;7.218;2022-07-30T07:40:56;37.53;;;25.33;;
23058;SDS011;30585;51.502;7.218;2022-07-30T07:43:24;38.50;;;23.75;;
23058;SDS011;30585;51.502;7.218;2022-07-30T07:45:52;34.10;;;21.00;;
23058;SDS011;30585;51.502;7.218;2022-07-30T07:48:20;36.25;;;21.98;;
23058;SDS011;30585;51.502;7.218;2022-07-30T07:50:48;34.42;;;21.80;;
23058;SDS011;30585;51.502;7.218;2022-07-30T07:53:17;28.65;;;19.83;;
23058;SDS011;30585;51.502;7.218;2022-07-30T07:55:45;32.30;;;21.20;;
23058;SDS011;30585;51.502;7.218;2022-07-30T07:58:13;36.08;;;21.27;;
23058;SDS011;30585;51.502;7.218;2022-07-30T08:00:50;38.75;;;24.10;;
23058;SDS011;30585;51.502;7.218;2022-07-30T08:03:19;37.67;;;23.52;;
23058;SDS011;30585;51.502;7.218;2022-07-30T08:05:46;40.15;;;24.90;;
23058;SDS011;30585;51.502;7.218;2022-07-30T08:08:32;37.80;;;24.92;;
23058;SDS011;30585;51.502;7.218;2022-07-30T08:11:02;36.97;;;25.27;;
23058;SDS011;30585;51.502;7.218;2022-07-30T08:13:31;36.38;;;24.80;;
23058;SDS011;30585;51.502;7.218;2022-07-30T08:16:17;41.35;;;25.80;;
23058;SDS011;30585;51.502;7.218;2022-07-30T08:18:46;40.53;;;25.50;;
23058;SDS011;30585;51.502;7.218;2022-07-30T08:21:13;43.47;;;26.40;;
23058;SDS011;30585;51.502;7.218;2022-07-30T08:23:43;39.33;;;25.63;;
23058;SDS011;30585;51.502;7.218;2022-07-30T08:26:11;41.10;;;24.70;;
23058;SDS011;30585;51.502;7.218;2022-07-30T08:28:39;38.00;;;25.02;;
23058;SDS011;30585;51.502;7.218;2022-07-30T08:31:08;34.88;;;22.70;;
23058;SDS011;30585;51.502;7.218;2022-07-30T08:33:36;37.80;;;23.70;;
23058;SDS011;30585;51.502;7.218;2022-07-30T08:36:04;38.95;;;23.45;;
23058;SDS011;30585;51.502;7.218;2022-07-30T08:38:35;35.25;;;22.90;;
23058;SDS011;30585;51.502;7.218;2022-07-30T08:41:05;34.30;;;23.38;;
23058;SDS011;30585;51.502;7.218;2022-07-30T08:43:34;33.53;;;21.55;;
23058;SDS011;30585;51.502;7.218;2022-07-30T08:46:03;34.55;;;22.67;;
23058;SDS011;30585;51.502;7.218;2022-07-30T08:48:35;34.58;;;21.80;;
23058;SDS011;30585;51.502;7.218;2022-07-30T08:51:03;30.10;;;19.67;;
23058;SDS011;30585;51.502;7.218;2022-07-30T08:53:33;26.88;;;19.27;;
23058;SDS011;30585;51.502;7.218;2022-07-30T08:56:02;30.27;;;19.50;;
23058;SDS011;30585;51.502;7.218;2022-07-30T08:58:32;26.90;;;18.15;;
23058;SDS011;30585;51.502;7.218;2022-07-30T09:01:01;28.67;;;18.25;;
23058;SDS011;30585;51.502;7.218;2022-07-30T09:03:31;25.15;;;15.85;;
23058;SDS011;30585;51.502;7.218;2022-07-30T09:05:59;22.65;;;14.93;;
23058;SDS011;30585;51.502;7.218;2022-07-30T09:08:28;26.45;;;15.27;;
23058;SDS011;30585;51.502;7.218;2022-07-30T09:10:56;27.75;;;15.70;;
23058;SDS011;30585;51.502;7.218;2022-07-30T09:13:25;23.92;;;14.73;;
23058;SDS011;30585;51.502;7.218;2022-07-30T09:15:56;19.33;;;12.18;;
23058;SDS011;30585;51.502;7.218;2022-07-30T09:18:27;16.45;;;10.48;;
23058;SDS011;30585;51.502;7.218;2022-07-30T09:20:59;14.25;;;9.68;;
23058;SDS011;30585;51.502;7.218;2022-07-30T09:23:28;17.73;;;9.80;;
23058;SDS011;30585;51.502;7.218;2022-07-30T09:25:57;16.02;;;9.25;;
23058;SDS011;30585;51.502;7.218;2022-07-30T09:28:27;15.65;;;8.50;;
23058;SDS011;30585;51.502;7.218;2022-07-30T09:30:58;11.05;;;8.23;;
23058;SDS011;30585;51.502;7.218;2022-07-30T09:33:30;13.65;;;9.30;;
23058;SDS011;30585;51.502;7.218;2022-07-30T09:36:03;24.48;;;12.68;;
23058;SDS011;30585;51.502;7.218;2022-07-30T09:38:42;19.00;;;11.75;;
23058;SDS011;30585;51.502;7.218;2022-07-30T09:41:13;19.08;;;12.00;;
23058;SDS011;30585;51.502;7.218;2022-07-30T09:44:02;18.50;;;10.98;;
23058;SDS011;30585;51.502;7.218;2022-07-30T09:46:41;20.80;;;12.43;;
23058;SDS011;30585;51.502;7.218;2022-07-30T09:49:13;19.58;;;12.35;;
23058;SDS011;30585;51.502;7.218;2022-07-30T09:51:42;19.65;;;11.63;;
23058;SDS011;30585;51.502;7.218;2022-07-30T09:54:21;15.65;;;9.95;;
23058;SDS011;30585;51.502;7.218;2022-07-30T09:57:02;12.35;;;8.68;;
23058;SDS011;30585;51.502;7.218;2022-07-30T09:59:52;12.07;;;8.20;;
23058;SDS011;30585;51.502;7.218;2022-07-30T10:02:28;13.63;;;8.55;;
23058;SDS011;30585;51.502;7.218;2022-07-30T10:05:08;12.75;;;8.43;;
23058;SDS011;30585;51.502;7.218;2022-07-30T10:07:45;11.25;;;8.30;;
23058;SDS011;30585;51.502;7.218;2022-07-30T10:10:17;13.82;;;7.70;;
23058;SDS011;30585;51.502;7.218;2022-07-30T10:12:51;11.65;;;8.68;;
23058;SDS011;30585;51.502;7.218;2022-07-30T10:15:21;11.82;;;8.48;;
23058;SDS011;30585;51.502;7.218;2022-07-30T10:17:55;16.42;;;9.52;;
23058;SDS011;30585;51.502;7.218;2022-07-30T10:20:24;14.10;;;8.95;;
23058;SDS011;30585;51.502;7.218;2022-07-30T10:22:53;12.43;;;9.10;;
23058;SDS011;30585;51.502;7.218;2022-07-30T10:25:22;9.68;;;8.10;;
23058;SDS011;30585;51.502;7.218;2022-07-30T10:27:53;10.75;;;7.30;;
23058;SDS011;30585;51.502;7.218;2022-07-30T10:30:24;10.38;;;9.18;;
23058;SDS011;30585;51.502;7.218;2022-07-30T10:32:55;10.02;;;8.52;;
23058;SDS011;30585;51.502;7.218;2022-07-30T10:35:26;14.80;;;10.05;;
23058;SDS011;30585;51.502;7.218;2022-07-30T10:38:04;11.50;;;8.70;;
23058;SDS011;30585;51.502;7.218;2022-07-30T10:40:41;11.65;;;8.55;;
23058;SDS011;30585;51.502;7.218;2022-07-30T10:46:36;9.23;;;5.45;;
23058;SDS011;30585;51.502;7.218;2022-07-30T10:49:15;7.88;;;5.57;;
23058;SDS011;30585;51.502;7.218;2022-07-30T10:51:45;9.15;;;6.22;;
23058;SDS011;30585;51.502;7.218;2022-07-30T10:57:06;8.75;;;6.60;;
23058;SDS011;30585;51.502;7.218;2022-07-30T11:02:40;7.20;;;5.00;;
23058;SDS011;30585;51.502;7.218;2022-07-30T11:05:50;9.07;;;6.15;;
23058;SDS011;30585;51.502;7.218;2022-07-30T11:08:27;11.50;;;5.90;;
23058;SDS011;30585;51.502;7.218;2022-07-30T11:11:02;10.20;;;6.38;;
23058;SDS011;30585;51.502;7.218;2022-07-30T11:13:52;10.38;;;6.63;;
23058;SDS011;30585;51.502;7.218;2022-07-30T11:16:21;10.20;;;6.90;;
23058;SDS011;30585;51.502;7.218;2022-07-30T11:19:01;5.47;;;4.97;;
23058;SDS011;30585;51.502;7.218;2022-07-30T11:24:51;9.00;;;4.85;;
23058;SDS011;30585;51.502;7.218;2022-07-30T11:27:32;4.65;;;3.95;;
23058;SDS011;30585;51.502;7.218;2022-07-30T11:30:03;5.72;;;4.30;;
23058;SDS011;30585;51.502;7.218;2022-07-30T11:32:33;6.10;;;4.40;;
23058;SDS011;30585;51.502;7.218;2022-07-30T11:35:15;7.82;;;4.57;;
23058;SDS011;30585;51.502;7.218;2022-07-30T11:38:03;5.43;;;4.45;;
23058;SDS011;30585;51.502;7.218;2022-07-30T11:40:33;6.85;;;4.82;;
23058;SDS011;30585;51.502;7.218;2022-07-30T11:43:19;7.10;;;4.22;;
23058;SDS011;30585;51.502;7.218;2022-07-30T11:46:05;4.00;;;3.58;;
23058;SDS011;30585;51.502;7.218;2022-07-30T11:48:36;4.95;;;3.00;;
23058;SDS011;30585;51.502;7.218;2022-07-30T11:51:07;4.60;;;2.60;;
23058;SDS011;30585;51.502;7.218;2022-07-30T11:53:37;3.47;;;3.10;;
23058;SDS011;30585;51.502;7.218;2022-07-30T11:56:05;4.63;;;2.78;;
23058;SDS011;30585;51.502;7.218;2022-07-30T11:58:39;5.32;;;2.75;;
23058;SDS011;30585;51.502;7.218;2022-07-30T12:01:10;3.35;;;3.05;;
23058;SDS011;30585;51.502;7.218;2022-07-30T12:03:39;4.88;;;2.72;;
23058;SDS011;30585;51.502;7.218;2022-07-30T12:06:10;3.72;;;2.80;;
23058;SDS011;30585;51.502;7.218;2022-07-30T12:08:45;4.82;;;2.60;;
23058;SDS011;30585;51.502;7.218;2022-07-30T12:11:14;3.70;;;2.63;;
23058;SDS011;30585;51.502;7.218;2022-07-30T12:13:43;4.65;;;2.72;;
23058;SDS011;30585;51.502;7.218;2022-07-30T12:16:22;2.55;;;2.35;;
23058;SDS011;30585;51.502;7.218;2022-07-30T12:18:50;6.07;;;2.90;;
23058;SDS011;30585;51.502;7.218;2022-07-30T12:21:18;5.65;;;2.63;;
23058;SDS011;30585;51.502;7.218;2022-07-30T12:23:55;4.28;;;2.20;;
23058;SDS011;30585;51.502;7.218;2022-07-30T12:26:24;5.25;;;3.05;;
23058;SDS011;30585;51.502;7.218;2022-07-30T12:28:54;3.45;;;2.40;;
23058;SDS011;30585;51.502;7.218;2022-07-30T12:31:23;7.22;;;2.00;;
23058;SDS011;30585;51.502;7.218;2022-07-30T12:33:51;6.90;;;2.65;;
23058;SDS011;30585;51.502;7.218;2022-07-30T12:36:25;3.65;;;2.42;;
23058;SDS011;30585;51.502;7.218;2022-07-30T12:38:56;4.63;;;2.70;;
23058;SDS011;30585;51.502;7.218;2022-07-30T12:41:39;3.60;;;2.10;;
23058;SDS011;30585;51.502;7.218;2022-07-30T12:44:08;5.18;;;2.10;;
23058;SDS011;30585;51.502;7.218;2022-07-30T12:46:37;6.28;;;2.10;;
23058;SDS011;30585;51.502;7.218;2022-07-30T12:49:07;3.78;;;1.80;;
23058;SDS011;30585;51.502;7.218;2022-07-30T12:51:52;4.78;;;2.10;;
23058;SDS011;30585;51.502;7.218;2022-07-30T12:54:27;5.32;;;2.45;;
23058;SDS011;30585;51.502;7.218;2022-07-30T12:56:56;5.00;;;2.03;;
23058;SDS011;30585;51.502;7.218;2022-07-30T12:59:26;3.63;;;1.80;;
23058;SDS011;30585;51.502;7.218;2022-07-30T13:01:54;5.03;;;2.28;;
23058;SDS011;30585;51.502;7.218;2022-07-30T13:04:25;2.83;;;1.70;;
23058;SDS011;30585;51.502;7.218;2022-07-30T13:07:03;2.75;;;1.55;;
23058;SDS011;30585;51.502;7.218;2022-07-30T13:09:34;3.40;;;1.55;;
23058;SDS011;30585;51.502;7.218;2022-07-30T13:12:03;2.00;;;1.45;;
23058;SDS011;30585;51.502;7.218;2022-07-30T13:14:31;3.33;;;1.42;;
23058;SDS011;30585;51.502;7.218;2022-07-30T13:16:59;2.22;;;1.58;;
23058;SDS011;30585;51.502;7.218;2022-07-30T13:19:29;2.30;;;1.30;;
23058;SDS011;30585;51.502;7.218;2022-07-30T13:21:57;2.45;;;1.50;;
23058;SDS011;30585;51.502;7.218;2022-07-30T13:24:25;3.80;;;1.60;;
23058;SDS011;30585;51.502;7.218;2022-07-30T13:26:54;2.13;;;1.52;;
23058;SDS011;30585;51.502;7.218;2022-07-30T13:29:22;2.20;;;1.27;;
23058;SDS011;30585;51.502;7.218;2022-07-30T13:31:50;3.50;;;1.40;;
23058;SDS011;30585;51.502;7.218;2022-07-30T13:34:18;7.47;;;1.33;;
23058;SDS011;30585;51.502;7.218;2022-07-30T13:36:46;5.18;;;1.38;;
23058;SDS011;30585;51.502;7.218;2022-07-30T13:39:14;2.03;;;1.30;;
23058;SDS011;30585;51.502;7.218;2022-07-30T13:41:42;1.50;;;1.17;;
23058;SDS011;30585;51.502;7.218;2022-07-30T13:44:12;3.22;;;1.80;;
23058;SDS011;30585;51.502;7.218;2022-07-30T13:46:40;2.50;;;1.55;;
23058;SDS011;30585;51.502;7.218;2022-07-30T13:49:08;4.60;;;1.63;;
23058;SDS011;30585;51.502;7.218;2022-07-30T13:51:36;3.42;;;1.98;;
23058;SDS011;30585;51.502;7.218;2022-07-30T13:54:04;1.55;;;1.42;;
23058;SDS011;30585;51.502;7.218;2022-07-30T13:56:33;2.25;;;1.52;;
23058;SDS011;30585;51.502;7.218;2022-07-30T13:59:06;2.95;;;1.38;;
23058;SDS011;30585;51.502;7.218;2022-07-30T14:01:35;2.60;;;1.35;;
23058;SDS011;30585;51.502;7.218;2022-07-30T14:04:03;3.45;;;1.60;;
23058;SDS011;30585;51.502;7.218;2022-07-30T14:06:32;1.70;;;1.30;;
23058;SDS011;30585;51.502;7.218;2022-07-30T14:09:00;1.52;;;1.27;;
23058;SDS011;30585;51.502;7.218;2022-07-30T14:11:28;2.30;;;1.30;;
23058;SDS011;30585;51.502;7.218;2022-07-30T14:13:57;4.50;;;1.27;;
23058;SDS011;30585;51.502;7.218;2022-07-30T14:16:25;2.40;;;1.15;;
23058;SDS011;30585;51.502;7.218;2022-07-30T14:19:13;1.30;;;1.20;;
23058;SDS011;30585;51.502;7.218;2022-07-30T14:21:49;1.73;;;1.38;;
23058;SDS011;30585;51.502;7.218;2022-07-30T14:24:18;3.10;;;1.40;;
23058;SDS011;30585;51.502;7.218;2022-07-30T14:26:46;3.17;;;1.30;;
23058;SDS011;30585;51.502;7.218;2022-07-30T14:29:17;3.25;;;1.52;;
23058;SDS011;30585;51.502;7.218;2022-07-30T14:31:45;2.65;;;1.40;;
23058;SDS011;30585;51.502;7.218;2022-07-30T14:34:14;2.10;;;1.60;;
23058;SDS011;30585;51.502;7.218;2022-07-30T14:36:44;2.15;;;1.30;;
23058;SDS011;30585;51.502;7.218;2022-07-30T14:39:12;1.65;;;1.48;;
23058;SDS011;30585;51.502;7.218;2022-07-30T14:41:40;1.90;;;1.30;;
23058;SDS011;30585;51.502;7.218;2022-07-30T14:44:08;2.35;;;1.30;;
23058;SDS011;30585;51.502;7.218;2022-07-30T14:46:37;2.38;;;1.48;;
23058;SDS011;30585;51.502;7.218;2022-07-30T14:49:19;3.35;;;1.80;;
23058;SDS011;30585;51.502;7.218;2022-07-30T14:51:49;3.22;;;1.75;;
23058;SDS011;30585;51.502;7.218;2022-07-30T14:54:17;2.28;;;1.40;;
23058;SDS011;30585;51.502;7.218;2022-07-30T14:56:45;1.55;;;1.45;;
23058;SDS011;30585;51.502;7.218;2022-07-30T14:59:13;2.30;;;1.70;;
23058;SDS011;30585;51.502;7.218;2022-07-30T15:01:42;1.48;;;1.38;;
23058;SDS011;30585;51.502;7.218;2022-07-30T15:04:10;5.72;;;1.55;;
23058;SDS011;30585;51.502;7.218;2022-07-30T15:06:39;1.80;;;1.70;;
23058;SDS011;30585;51.502;7.218;2022-07-30T15:09:08;1.90;;;1.38;;
23058;SDS011;30585;51.502;7.218;2022-07-30T15:11:36;2.25;;;1.30;;
23058;SDS011;30585;51.502;7.218;2022-07-30T15:14:25;4.10;;;1.52;;